sensor_id;sensor_type;location;lat;lon;timestamp;P1;durP1;ratioP1;P2;durP2;ratioP2
27402;SDS011;14862;49.494;8.530;2023-05-16T00:00:21;43.63;;;28.63;;
27402;SDS011;14862;49.494;8.530;2023-05-16T00:02:49;43.60;;;30.20;;
27402;SDS011;14862;49.494;8.530;2023-05-16T00:05:15;41.28;;;29.50;;
27402;SDS011;14862;49.494;8.530;2023-05-16T00:07:44;45.60;;;31.17;;
27402;SDS011;14862;49.494;8.530;2023-05-16T00:10:10;44.55;;;30.70;;
27402;SDS011;14862;49.494;8.530;2023-05-16T00:12:35;50.85;;;32.13;;
27402;SDS011;14862;49.494;8.530;2023-05-16T00:15:01;50.10;;;33.15;;
27402;SDS011;14862;49.494;8.530;2023-05-16T00:17:27;45.45;;;32.10;;
27402;SDS011;14862;49.494;8.530;2023-05-16T00:19:53;52.60;;;35.25;;
27402;SDS011;14862;49.494;8.530;2023-05-16T00:22:22;54.88;;;36.10;;
27402;SDS011;14862;49.494;8.530;2023-05-16T00:24:47;49.60;;;34.72;;
27402;SDS011;14862;49.494;8.530;2023-05-16T00:27:12;56.53;;;37.50;;
27402;SDS011;14862;49.494;8.530;2023-05-16T00:29:38;52.13;;;36.43;;
27402;SDS011;14862;49.494;8.530;2023-05-16T00:32:03;51.70;;;35.50;;
27402;SDS011;14862;49.494;8.530;2023-05-16T00:34:28;54.45;;;37.17;;
27402;SDS011;14862;49.494;8.530;2023-05-16T00:36:53;57.33;;;38.03;;
27402;SDS011;14862;49.494;8.530;2023-05-16T00:39:19;55.25;;;35.95;;
27402;SDS011;14862;49.494;8.530;2023-05-16T00:41:44;54.30;;;35.75;;
27402;SDS011;14862;49.494;8.530;2023-05-16T00:44:10;54.45;;;36.72;;
27402;SDS011;14862;49.494;8.530;2023-05-16T00:46:35;58.22;;;38.03;;
27402;SDS011;14862;49.494;8.530;2023-05-16T00:49:00;56.53;;;37.17;;
27402;SDS011;14862;49.494;8.530;2023-05-16T00:51:26;54.60;;;36.63;;
27402;SDS011;14862;49.494;8.530;2023-05-16T00:53:51;53.55;;;36.25;;
27402;SDS011;14862;49.494;8.530;2023-05-16T00:56:17;56.55;;;36.08;;
27402;SDS011;14862;49.494;8.530;2023-05-16T00:58:42;56.07;;;37.27;;
27402;SDS011;14862;49.494;8.530;2023-05-16T01:01:08;56.72;;;37.55;;
27402;SDS011;14862;49.494;8.530;2023-05-16T01:03:33;59.42;;;37.08;;
27402;SDS011;14862;49.494;8.530;2023-05-16T01:05:59;58.92;;;37.60;;
27402;SDS011;14862;49.494;8.530;2023-05-16T01:08:24;56.38;;;38.38;;
27402;SDS011;14862;49.494;8.530;2023-05-16T01:13:23;56.75;;;38.05;;
27402;SDS011;14862;49.494;8.530;2023-05-16T01:18:51;52.90;;;36.53;;
27402;SDS011;14862;49.494;8.530;2023-05-16T01:21:22;56.03;;;37.03;;
27402;SDS011;14862;49.494;8.530;2023-05-16T01:26:24;54.97;;;36.78;;
27402;SDS011;14862;49.494;8.530;2023-05-16T01:28:51;58.88;;;36.70;;
27402;SDS011;14862;49.494;8.530;2023-05-16T01:31:16;54.35;;;34.95;;
27402;SDS011;14862;49.494;8.530;2023-05-16T01:33:42;56.67;;;36.25;;
27402;SDS011;14862;49.494;8.530;2023-05-16T01:39:53;52.60;;;34.25;;
27402;SDS011;14862;49.494;8.530;2023-05-16T01:46:58;50.55;;;33.65;;
27402;SDS011;14862;49.494;8.530;2023-05-16T01:49:25;50.85;;;35.53;;
27402;SDS011;14862;49.494;8.530;2023-05-16T01:51:59;49.80;;;35.53;;
27402;SDS011;14862;49.494;8.530;2023-05-16T01:54:25;52.37;;;35.23;;
27402;SDS011;14862;49.494;8.530;2023-05-16T01:56:54;53.03;;;34.67;;
27402;SDS011;14862;49.494;8.530;2023-05-16T01:59:20;48.17;;;32.97;;
27402;SDS011;14862;49.494;8.530;2023-05-16T02:01:46;56.58;;;33.30;;
27402;SDS011;14862;49.494;8.530;2023-05-16T02:04:11;44.13;;;31.50;;
27402;SDS011;14862;49.494;8.530;2023-05-16T02:06:39;51.03;;;31.35;;
27402;SDS011;14862;49.494;8.530;2023-05-16T02:09:04;43.40;;;29.83;;
27402;SDS011;14862;49.494;8.530;2023-05-16T02:11:29;43.92;;;28.95;;
27402;SDS011;14862;49.494;8.530;2023-05-16T02:13:55;46.83;;;29.30;;
27402;SDS011;14862;49.494;8.530;2023-05-16T02:16:20;43.92;;;28.23;;
27402;SDS011;14862;49.494;8.530;2023-05-16T02:18:45;41.27;;;29.23;;
27402;SDS011;14862;49.494;8.530;2023-05-16T02:21:10;41.50;;;29.98;;
27402;SDS011;14862;49.494;8.530;2023-05-16T02:23:36;35.80;;;27.30;;
27402;SDS011;14862;49.494;8.530;2023-05-16T02:26:01;40.03;;;27.70;;
27402;SDS011;14862;49.494;8.530;2023-05-16T02:28:26;45.43;;;28.17;;
27402;SDS011;14862;49.494;8.530;2023-05-16T02:31:00;37.65;;;25.92;;
27402;SDS011;14862;49.494;8.530;2023-05-16T02:33:26;45.85;;;26.02;;
27402;SDS011;14862;49.494;8.530;2023-05-16T02:35:53;37.85;;;25.35;;
27402;SDS011;14862;49.494;8.530;2023-05-16T02:38:18;40.08;;;25.17;;
27402;SDS011;14862;49.494;8.530;2023-05-16T02:40:45;37.60;;;25.00;;
27402;SDS011;14862;49.494;8.530;2023-05-16T02:43:10;35.70;;;24.52;;
27402;SDS011;14862;49.494;8.530;2023-05-16T02:45:35;35.20;;;23.63;;
27402;SDS011;14862;49.494;8.530;2023-05-16T02:48:01;38.72;;;23.85;;
27402;SDS011;14862;49.494;8.530;2023-05-16T02:50:26;35.13;;;24.67;;
27402;SDS011;14862;49.494;8.530;2023-05-16T02:52:51;38.58;;;24.17;;
27402;SDS011;14862;49.494;8.530;2023-05-16T02:55:16;37.93;;;23.67;;
27402;SDS011;14862;49.494;8.530;2023-05-16T02:57:41;35.90;;;23.33;;
27402;SDS011;14862;49.494;8.530;2023-05-16T03:00:07;34.38;;;23.67;;
27402;SDS011;14862;49.494;8.530;2023-05-16T03:02:35;37.03;;;23.83;;
27402;SDS011;14862;49.494;8.530;2023-05-16T03:05:00;38.65;;;25.02;;
27402;SDS011;14862;49.494;8.530;2023-05-16T03:07:26;35.23;;;23.43;;
27402;SDS011;14862;49.494;8.530;2023-05-16T03:09:51;34.33;;;22.20;;
27402;SDS011;14862;49.494;8.530;2023-05-16T03:12:16;35.22;;;22.35;;
27402;SDS011;14862;49.494;8.530;2023-05-16T03:14:41;34.75;;;23.17;;
27402;SDS011;14862;49.494;8.530;2023-05-16T03:17:07;34.08;;;23.50;;
27402;SDS011;14862;49.494;8.530;2023-05-16T03:19:32;40.17;;;23.23;;
27402;SDS011;14862;49.494;8.530;2023-05-16T03:21:57;36.33;;;24.47;;
27402;SDS011;14862;49.494;8.530;2023-05-16T03:24:22;35.20;;;23.80;;
27402;SDS011;14862;49.494;8.530;2023-05-16T03:26:48;40.40;;;24.85;;
27402;SDS011;14862;49.494;8.530;2023-05-16T03:29:13;42.22;;;25.05;;
27402;SDS011;14862;49.494;8.530;2023-05-16T03:31:39;37.92;;;24.40;;
27402;SDS011;14862;49.494;8.530;2023-05-16T03:34:06;37.17;;;23.73;;
27402;SDS011;14862;49.494;8.530;2023-05-16T03:36:31;43.58;;;25.00;;
27402;SDS011;14862;49.494;8.530;2023-05-16T03:38:57;43.63;;;24.25;;
27402;SDS011;14862;49.494;8.530;2023-05-16T03:41:22;44.42;;;24.83;;
27402;SDS011;14862;49.494;8.530;2023-05-16T03:43:47;41.67;;;23.83;;
27402;SDS011;14862;49.494;8.530;2023-05-16T03:46:13;40.35;;;23.85;;
27402;SDS011;14862;49.494;8.530;2023-05-16T03:48:38;37.85;;;23.50;;
27402;SDS011;14862;49.494;8.530;2023-05-16T03:51:03;42.60;;;24.77;;
27402;SDS011;14862;49.494;8.530;2023-05-16T03:53:29;39.22;;;22.85;;
27402;SDS011;14862;49.494;8.530;2023-05-16T03:55:54;40.75;;;22.90;;
27402;SDS011;14862;49.494;8.530;2023-05-16T03:58:19;39.00;;;21.77;;
27402;SDS011;14862;49.494;8.530;2023-05-16T04:00:44;42.00;;;23.07;;
27402;SDS011;14862;49.494;8.530;2023-05-16T04:03:10;35.53;;;22.23;;
27402;SDS011;14862;49.494;8.530;2023-05-16T04:05:35;36.17;;;22.10;;
27402;SDS011;14862;49.494;8.530;2023-05-16T04:08:01;35.20;;;19.83;;
27402;SDS011;14862;49.494;8.530;2023-05-16T04:10:26;39.63;;;21.50;;
27402;SDS011;14862;49.494;8.530;2023-05-16T04:12:52;36.35;;;22.10;;
27402;SDS011;14862;49.494;8.530;2023-05-16T04:15:17;30.05;;;19.38;;
27402;SDS011;14862;49.494;8.530;2023-05-16T04:17:42;36.38;;;20.52;;
27402;SDS011;14862;49.494;8.530;2023-05-16T04:20:08;34.20;;;21.73;;
27402;SDS011;14862;49.494;8.530;2023-05-16T04:22:33;40.80;;;21.85;;
27402;SDS011;14862;49.494;8.530;2023-05-16T04:24:58;33.25;;;21.00;;
27402;SDS011;14862;49.494;8.530;2023-05-16T04:27:24;37.17;;;21.08;;
27402;SDS011;14862;49.494;8.530;2023-05-16T04:29:50;37.97;;;21.60;;
27402;SDS011;14862;49.494;8.530;2023-05-16T04:32:16;32.78;;;19.75;;
27402;SDS011;14862;49.494;8.530;2023-05-16T04:34:41;34.78;;;20.83;;
27402;SDS011;14862;49.494;8.530;2023-05-16T04:37:08;36.47;;;21.73;;
27402;SDS011;14862;49.494;8.530;2023-05-16T04:39:33;30.40;;;20.17;;
27402;SDS011;14862;49.494;8.530;2023-05-16T04:41:59;35.47;;;20.58;;
27402;SDS011;14862;49.494;8.530;2023-05-16T04:44:25;29.70;;;19.00;;
27402;SDS011;14862;49.494;8.530;2023-05-16T04:46:50;34.30;;;19.90;;
27402;SDS011;14862;49.494;8.530;2023-05-16T04:49:17;29.10;;;19.50;;
27402;SDS011;14862;49.494;8.530;2023-05-16T04:51:42;35.55;;;19.65;;
27402;SDS011;14862;49.494;8.530;2023-05-16T04:54:07;27.75;;;19.48;;
27402;SDS011;14862;49.494;8.530;2023-05-16T04:56:32;28.40;;;17.70;;
27402;SDS011;14862;49.494;8.530;2023-05-16T04:58:58;29.38;;;19.08;;
27402;SDS011;14862;49.494;8.530;2023-05-16T05:01:23;27.17;;;16.83;;
27402;SDS011;14862;49.494;8.530;2023-05-16T05:03:48;30.13;;;16.58;;
27402;SDS011;14862;49.494;8.530;2023-05-16T05:06:13;21.55;;;14.98;;
27402;SDS011;14862;49.494;8.530;2023-05-16T05:08:39;24.27;;;15.38;;
27402;SDS011;14862;49.494;8.530;2023-05-16T05:11:05;24.35;;;15.80;;
27402;SDS011;14862;49.494;8.530;2023-05-16T05:13:30;27.27;;;14.90;;
27402;SDS011;14862;49.494;8.530;2023-05-16T05:15:55;25.02;;;15.00;;
27402;SDS011;14862;49.494;8.530;2023-05-16T05:18:20;23.40;;;13.87;;
27402;SDS011;14862;49.494;8.530;2023-05-16T05:20:46;20.60;;;13.65;;
27402;SDS011;14862;49.494;8.530;2023-05-16T05:23:11;20.25;;;12.75;;
27402;SDS011;14862;49.494;8.530;2023-05-16T05:25:37;20.88;;;12.18;;
27402;SDS011;14862;49.494;8.530;2023-05-16T05:28:02;15.85;;;11.45;;
27402;SDS011;14862;49.494;8.530;2023-05-16T05:30:28;15.57;;;10.95;;
27402;SDS011;14862;49.494;8.530;2023-05-16T05:32:53;19.17;;;11.70;;
27402;SDS011;14862;49.494;8.530;2023-05-16T05:35:18;13.77;;;9.98;;
27402;SDS011;14862;49.494;8.530;2023-05-16T05:37:44;13.95;;;9.45;;
27402;SDS011;14862;49.494;8.530;2023-05-16T05:40:09;13.00;;;9.40;;
27402;SDS011;14862;49.494;8.530;2023-05-16T05:42:34;15.38;;;7.80;;
27402;SDS011;14862;49.494;8.530;2023-05-16T05:45:00;11.13;;;7.47;;
27402;SDS011;14862;49.494;8.530;2023-05-16T05:47:25;12.33;;;7.10;;
27402;SDS011;14862;49.494;8.530;2023-05-16T05:49:50;10.53;;;6.47;;
27402;SDS011;14862;49.494;8.530;2023-05-16T05:52:15;7.65;;;5.85;;
27402;SDS011;14862;49.494;8.530;2023-05-16T05:54:41;11.55;;;5.13;;
27402;SDS011;14862;49.494;8.530;2023-05-16T05:57:06;8.70;;;4.75;;
27402;SDS011;14862;49.494;8.530;2023-05-16T05:59:31;7.30;;;4.70;;
27402;SDS011;14862;49.494;8.530;2023-05-16T06:01:56;4.70;;;3.75;;
27402;SDS011;14862;49.494;8.530;2023-05-16T06:04:22;4.32;;;3.75;;
27402;SDS011;14862;49.494;8.530;2023-05-16T06:06:48;6.15;;;3.63;;
27402;SDS011;14862;49.494;8.530;2023-05-16T06:09:13;4.80;;;3.58;;
27402;SDS011;14862;49.494;8.530;2023-05-16T06:11:39;4.45;;;3.08;;
27402;SDS011;14862;49.494;8.530;2023-05-16T06:14:04;4.07;;;3.05;;
27402;SDS011;14862;49.494;8.530;2023-05-16T06:16:30;4.75;;;2.67;;
27402;SDS011;14862;49.494;8.530;2023-05-16T06:18:55;4.53;;;2.92;;
27402;SDS011;14862;49.494;8.530;2023-05-16T06:21:20;4.72;;;2.83;;
27402;SDS011;14862;49.494;8.530;2023-05-16T06:23:46;3.17;;;2.03;;
27402;SDS011;14862;49.494;8.530;2023-05-16T06:26:11;2.60;;;2.22;;
27402;SDS011;14862;49.494;8.530;2023-05-16T06:28:36;4.53;;;2.67;;
27402;SDS011;14862;49.494;8.530;2023-05-16T06:31:02;2.38;;;1.98;;
27402;SDS011;14862;49.494;8.530;2023-05-16T06:33:27;2.20;;;1.90;;
27402;SDS011;14862;49.494;8.530;2023-05-16T06:35:52;3.03;;;2.03;;
27402;SDS011;14862;49.494;8.530;2023-05-16T06:38:17;2.20;;;1.77;;
27402;SDS011;14862;49.494;8.530;2023-05-16T06:40:46;1.92;;;1.80;;
27402;SDS011;14862;49.494;8.530;2023-05-16T06:43:11;2.90;;;1.70;;
27402;SDS011;14862;49.494;8.530;2023-05-16T06:45:36;2.00;;;1.85;;
27402;SDS011;14862;49.494;8.530;2023-05-16T06:48:01;3.25;;;1.90;;
27402;SDS011;14862;49.494;8.530;2023-05-16T06:50:27;2.45;;;1.77;;
27402;SDS011;14862;49.494;8.530;2023-05-16T06:52:52;2.78;;;1.63;;
27402;SDS011;14862;49.494;8.530;2023-05-16T06:55:17;1.60;;;1.50;;
27402;SDS011;14862;49.494;8.530;2023-05-16T06:57:43;1.55;;;1.45;;
27402;SDS011;14862;49.494;8.530;2023-05-16T07:00:08;1.70;;;1.60;;
27402;SDS011;14862;49.494;8.530;2023-05-16T07:02:33;1.73;;;1.63;;
27402;SDS011;14862;49.494;8.530;2023-05-16T07:04:58;3.20;;;1.80;;
27402;SDS011;14862;49.494;8.530;2023-05-16T07:07:24;2.25;;;1.77;;
27402;SDS011;14862;49.494;8.530;2023-05-16T07:09:49;1.63;;;1.52;;
27402;SDS011;14862;49.494;8.530;2023-05-16T07:12:14;2.72;;;1.70;;
27402;SDS011;14862;49.494;8.530;2023-05-16T07:14:40;2.92;;;1.67;;
27402;SDS011;14862;49.494;8.530;2023-05-16T07:17:05;3.08;;;1.80;;
27402;SDS011;14862;49.494;8.530;2023-05-16T07:19:31;2.00;;;1.70;;
27402;SDS011;14862;49.494;8.530;2023-05-16T07:21:56;3.67;;;1.73;;
27402;SDS011;14862;49.494;8.530;2023-05-16T07:24:21;2.70;;;1.52;;
27402;SDS011;14862;49.494;8.530;2023-05-16T07:26:47;3.13;;;1.60;;
27402;SDS011;14862;49.494;8.530;2023-05-16T07:29:12;2.50;;;1.38;;
27402;SDS011;14862;49.494;8.530;2023-05-16T07:31:37;1.70;;;1.40;;
27402;SDS011;14862;49.494;8.530;2023-05-16T07:34:02;2.92;;;1.80;;
27402;SDS011;14862;49.494;8.530;2023-05-16T07:36:28;2.90;;;1.30;;
27402;SDS011;14862;49.494;8.530;2023-05-16T07:38:53;2.08;;;1.63;;
27402;SDS011;14862;49.494;8.530;2023-05-16T07:41:19;2.35;;;1.40;;
27402;SDS011;14862;49.494;8.530;2023-05-16T07:43:45;3.50;;;1.48;;
27402;SDS011;14862;49.494;8.530;2023-05-16T07:46:10;3.72;;;1.48;;
27402;SDS011;14862;49.494;8.530;2023-05-16T07:48:36;2.03;;;1.15;;
27402;SDS011;14862;49.494;8.530;2023-05-16T07:51:01;1.25;;;1.10;;
27402;SDS011;14862;49.494;8.530;2023-05-16T07:53:26;1.30;;;1.20;;
27402;SDS011;14862;49.494;8.530;2023-05-16T07:55:52;1.63;;;1.38;;
27402;SDS011;14862;49.494;8.530;2023-05-16T07:58:17;2.00;;;1.27;;
27402;SDS011;14862;49.494;8.530;2023-05-16T08:00:42;1.67;;;1.20;;
27402;SDS011;14862;49.494;8.530;2023-05-16T08:03:07;3.05;;;2.08;;
27402;SDS011;14862;49.494;8.530;2023-05-16T08:05:33;2.75;;;1.00;;
27402;SDS011;14862;49.494;8.530;2023-05-16T08:07:58;2.30;;;1.33;;
27402;SDS011;14862;49.494;8.530;2023-05-16T08:10:23;2.88;;;1.40;;
27402;SDS011;14862;49.494;8.530;2023-05-16T08:12:48;2.65;;;1.27;;
27402;SDS011;14862;49.494;8.530;2023-05-16T08:15:14;2.70;;;1.40;;
27402;SDS011;14862;49.494;8.530;2023-05-16T08:17:39;1.73;;;1.15;;
27402;SDS011;14862;49.494;8.530;2023-05-16T08:20:05;4.82;;;1.55;;
27402;SDS011;14862;49.494;8.530;2023-05-16T08:22:31;3.03;;;1.27;;
27402;SDS011;14862;49.494;8.530;2023-05-16T08:24:57;3.92;;;1.15;;
27402;SDS011;14862;49.494;8.530;2023-05-16T08:27:24;3.45;;;1.42;;
27402;SDS011;14862;49.494;8.530;2023-05-16T08:29:49;2.40;;;1.45;;
27402;SDS011;14862;49.494;8.530;2023-05-16T08:32:14;1.35;;;1.25;;
27402;SDS011;14862;49.494;8.530;2023-05-16T08:34:40;1.25;;;1.23;;
27402;SDS011;14862;49.494;8.530;2023-05-16T08:37:06;5.40;;;1.45;;
27402;SDS011;14862;49.494;8.530;2023-05-16T08:39:31;1.23;;;1.13;;
27402;SDS011;14862;49.494;8.530;2023-05-16T08:41:56;2.35;;;1.10;;
27402;SDS011;14862;49.494;8.530;2023-05-16T08:44:23;1.80;;;1.00;;
27402;SDS011;14862;49.494;8.530;2023-05-16T08:46:49;1.30;;;1.15;;
27402;SDS011;14862;49.494;8.530;2023-05-16T08:49:17;1.33;;;0.90;;
27402;SDS011;14862;49.494;8.530;2023-05-16T08:51:42;1.00;;;0.90;;
27402;SDS011;14862;49.494;8.530;2023-05-16T08:54:11;2.28;;;1.08;;
27402;SDS011;14862;49.494;8.530;2023-05-16T08:56:40;1.98;;;0.80;;
27402;SDS011;14862;49.494;8.530;2023-05-16T08:59:06;3.63;;;1.00;;
27402;SDS011;14862;49.494;8.530;2023-05-16T09:01:31;1.10;;;0.70;;
27402;SDS011;14862;49.494;8.530;2023-05-16T09:03:57;0.65;;;0.65;;
27402;SDS011;14862;49.494;8.530;2023-05-16T09:06:22;0.57;;;0.57;;
27402;SDS011;14862;49.494;8.530;2023-05-16T09:08:47;0.98;;;0.47;;
27402;SDS011;14862;49.494;8.530;2023-05-16T09:11:13;0.73;;;0.50;;
27402;SDS011;14862;49.494;8.530;2023-05-16T09:13:38;11.50;;;0.77;;
27402;SDS011;14862;49.494;8.530;2023-05-16T09:16:14;2.50;;;0.45;;
27402;SDS011;14862;49.494;8.530;2023-05-16T09:18:41;0.68;;;0.68;;
27402;SDS011;14862;49.494;8.530;2023-05-16T09:21:07;0.70;;;0.70;;
27402;SDS011;14862;49.494;8.530;2023-05-16T09:23:33;0.70;;;0.70;;
27402;SDS011;14862;49.494;8.530;2023-05-16T09:25:59;0.85;;;0.60;;
27402;SDS011;14862;49.494;8.530;2023-05-16T09:28:24;3.70;;;0.75;;
27402;SDS011;14862;49.494;8.530;2023-05-16T09:30:51;3.83;;;0.80;;
27402;SDS011;14862;49.494;8.530;2023-05-16T09:33:16;1.77;;;0.90;;
27402;SDS011;14862;49.494;8.530;2023-05-16T09:35:41;1.35;;;0.77;;
27402;SDS011;14862;49.494;8.530;2023-05-16T09:38:11;0.65;;;0.40;;
27402;SDS011;14862;49.494;8.530;2023-05-16T09:40:39;2.80;;;0.93;;
27402;SDS011;14862;49.494;8.530;2023-05-16T09:43:04;3.90;;;0.40;;
27402;SDS011;14862;49.494;8.530;2023-05-16T09:45:30;2.65;;;0.40;;
27402;SDS011;14862;49.494;8.530;2023-05-16T09:48:09;0.45;;;0.35;;
27402;SDS011;14862;49.494;8.530;2023-05-16T09:50:36;1.27;;;0.38;;
27402;SDS011;14862;49.494;8.530;2023-05-16T09:53:02;0.83;;;0.40;;
27402;SDS011;14862;49.494;8.530;2023-05-16T09:55:28;0.90;;;0.50;;
27402;SDS011;14862;49.494;8.530;2023-05-16T09:57:54;1.25;;;0.32;;
27402;SDS011;14862;49.494;8.530;2023-05-16T10:00:19;2.35;;;0.73;;
27402;SDS011;14862;49.494;8.530;2023-05-16T10:02:45;6.25;;;1.88;;
27402;SDS011;14862;49.494;8.530;2023-05-16T10:05:10;5.95;;;0.50;;
27402;SDS011;14862;49.494;8.530;2023-05-16T10:07:35;1.67;;;0.70;;
27402;SDS011;14862;49.494;8.530;2023-05-16T10:10:04;5.50;;;0.80;;
27402;SDS011;14862;49.494;8.530;2023-05-16T10:12:30;1.17;;;0.70;;
27402;SDS011;14862;49.494;8.530;2023-05-16T10:14:57;2.58;;;0.88;;
27402;SDS011;14862;49.494;8.530;2023-05-16T10:17:23;1.38;;;0.70;;
27402;SDS011;14862;49.494;8.530;2023-05-16T10:19:49;3.17;;;0.60;;
27402;SDS011;14862;49.494;8.530;2023-05-16T10:22:15;4.47;;;0.73;;
27402;SDS011;14862;49.494;8.530;2023-05-16T10:27:11;0.60;;;0.60;;
27402;SDS011;14862;49.494;8.530;2023-05-16T10:29:37;2.65;;;0.60;;
27402;SDS011;14862;49.494;8.530;2023-05-16T10:32:03;1.02;;;0.55;;
27402;SDS011;14862;49.494;8.530;2023-05-16T10:34:29;1.45;;;0.63;;
27402;SDS011;14862;49.494;8.530;2023-05-16T10:36:54;1.45;;;0.55;;
27402;SDS011;14862;49.494;8.530;2023-05-16T10:39:20;0.65;;;0.50;;
27402;SDS011;14862;49.494;8.530;2023-05-16T10:41:46;2.83;;;0.47;;
27402;SDS011;14862;49.494;8.530;2023-05-16T10:44:12;1.77;;;0.63;;
27402;SDS011;14862;49.494;8.530;2023-05-16T10:46:38;0.95;;;0.60;;
27402;SDS011;14862;49.494;8.530;2023-05-16T10:49:23;1.55;;;0.90;;
27402;SDS011;14862;49.494;8.530;2023-05-16T10:54:32;0.70;;;0.60;;
27402;SDS011;14862;49.494;8.530;2023-05-16T10:56:58;3.22;;;0.88;;
27402;SDS011;14862;49.494;8.530;2023-05-16T10:59:27;5.22;;;0.73;;
27402;SDS011;14862;49.494;8.530;2023-05-16T11:01:53;2.30;;;0.80;;
27402;SDS011;14862;49.494;8.530;2023-05-16T11:04:19;3.72;;;0.55;;
27402;SDS011;14862;49.494;8.530;2023-05-16T11:06:45;2.28;;;0.80;;
27402;SDS011;14862;49.494;8.530;2023-05-16T11:14:02;3.93;;;1.30;;
27402;SDS011;14862;49.494;8.530;2023-05-16T11:16:28;0.98;;;0.90;;
27402;SDS011;14862;49.494;8.530;2023-05-16T11:18:53;2.35;;;0.60;;
27402;SDS011;14862;49.494;8.530;2023-05-16T11:21:18;0.70;;;0.70;;
27402;SDS011;14862;49.494;8.530;2023-05-16T11:23:45;1.98;;;0.98;;
27402;SDS011;14862;49.494;8.530;2023-05-16T11:26:29;0.95;;;0.77;;
27402;SDS011;14862;49.494;8.530;2023-05-16T11:28:55;2.63;;;0.93;;
27402;SDS011;14862;49.494;8.530;2023-05-16T11:31:22;3.63;;;1.20;;
27402;SDS011;14862;49.494;8.530;2023-05-16T11:33:47;3.72;;;1.27;;
27402;SDS011;14862;49.494;8.530;2023-05-16T11:36:13;2.28;;;1.50;;
27402;SDS011;14862;49.494;8.530;2023-05-16T11:38:38;4.38;;;1.02;;
27402;SDS011;14862;49.494;8.530;2023-05-16T11:41:07;4.97;;;1.50;;
27402;SDS011;14862;49.494;8.530;2023-05-16T11:43:40;6.10;;;1.70;;
27402;SDS011;14862;49.494;8.530;2023-05-16T11:46:05;4.75;;;1.25;;
27402;SDS011;14862;49.494;8.530;2023-05-16T11:48:32;4.50;;;1.70;;
27402;SDS011;14862;49.494;8.530;2023-05-16T11:50:57;3.47;;;1.40;;
27402;SDS011;14862;49.494;8.530;2023-05-16T11:53:22;4.35;;;1.48;;
27402;SDS011;14862;49.494;8.530;2023-05-16T11:55:48;7.25;;;1.60;;
27402;SDS011;14862;49.494;8.530;2023-05-16T11:58:16;3.70;;;1.52;;
27402;SDS011;14862;49.494;8.530;2023-05-16T12:00:49;4.72;;;1.83;;
27402;SDS011;14862;49.494;8.530;2023-05-16T12:03:15;3.70;;;1.38;;
27402;SDS011;14862;49.494;8.530;2023-05-16T12:05:48;7.53;;;1.80;;
27402;SDS011;14862;49.494;8.530;2023-05-16T12:08:14;10.07;;;1.70;;
27402;SDS011;14862;49.494;8.530;2023-05-16T12:10:40;4.43;;;1.70;;
27402;SDS011;14862;49.494;8.530;2023-05-16T12:13:06;7.20;;;1.80;;
27402;SDS011;14862;49.494;8.530;2023-05-16T12:15:31;13.07;;;1.70;;
27402;SDS011;14862;49.494;8.530;2023-05-16T12:17:57;4.43;;;1.60;;
27402;SDS011;14862;49.494;8.530;2023-05-16T12:20:22;8.55;;;1.80;;
27402;SDS011;14862;49.494;8.530;2023-05-16T12:22:49;6.50;;;2.15;;
27402;SDS011;14862;49.494;8.530;2023-05-16T12:27:47;3.22;;;1.23;;
27402;SDS011;14862;49.494;8.530;2023-05-16T12:30:12;4.13;;;1.67;;
27402;SDS011;14862;49.494;8.530;2023-05-16T12:32:40;10.63;;;1.85;;
27402;SDS011;14862;49.494;8.530;2023-05-16T12:35:05;7.53;;;2.30;;
27402;SDS011;14862;49.494;8.530;2023-05-16T12:37:31;6.80;;;1.55;;
27402;SDS011;14862;49.494;8.530;2023-05-16T12:39:59;9.43;;;2.00;;
27402;SDS011;14862;49.494;8.530;2023-05-16T12:42:28;7.07;;;2.00;;
27402;SDS011;14862;49.494;8.530;2023-05-16T12:44:56;5.97;;;1.63;;
27402;SDS011;14862;49.494;8.530;2023-05-16T12:47:21;7.07;;;1.55;;
27402;SDS011;14862;49.494;8.530;2023-05-16T12:49:47;5.80;;;1.63;;
27402;SDS011;14862;49.494;8.530;2023-05-16T12:52:18;4.07;;;1.60;;
27402;SDS011;14862;49.494;8.530;2023-05-16T12:54:44;4.55;;;1.60;;
27402;SDS011;14862;49.494;8.530;2023-05-16T12:57:10;9.23;;;2.47;;
27402;SDS011;14862;49.494;8.530;2023-05-16T12:59:35;5.07;;;1.52;;
27402;SDS011;14862;49.494;8.530;2023-05-16T13:02:01;4.07;;;1.63;;
27402;SDS011;14862;49.494;8.530;2023-05-16T13:04:26;7.82;;;1.90;;
27402;SDS011;14862;49.494;8.530;2023-05-16T13:06:51;5.67;;;2.00;;
27402;SDS011;14862;49.494;8.530;2023-05-16T13:09:17;5.90;;;2.40;;
27402;SDS011;14862;49.494;8.530;2023-05-16T13:11:42;4.28;;;1.75;;
27402;SDS011;14862;49.494;8.530;2023-05-16T13:14:07;7.38;;;2.00;;
27402;SDS011;14862;49.494;8.530;2023-05-16T13:16:33;5.30;;;2.17;;
27402;SDS011;14862;49.494;8.530;2023-05-16T13:18:58;9.30;;;2.20;;
27402;SDS011;14862;49.494;8.530;2023-05-16T13:21:23;4.18;;;1.58;;
27402;SDS011;14862;49.494;8.530;2023-05-16T13:23:48;7.17;;;1.60;;
27402;SDS011;14862;49.494;8.530;2023-05-16T13:26:14;7.75;;;1.65;;
27402;SDS011;14862;49.494;8.530;2023-05-16T13:28:39;8.75;;;2.20;;
27402;SDS011;14862;49.494;8.530;2023-05-16T13:31:04;4.97;;;1.55;;
27402;SDS011;14862;49.494;8.530;2023-05-16T13:33:30;5.20;;;1.77;;
27402;SDS011;14862;49.494;8.530;2023-05-16T13:35:55;6.80;;;1.60;;
27402;SDS011;14862;49.494;8.530;2023-05-16T13:38:20;9.07;;;1.85;;
27402;SDS011;14862;49.494;8.530;2023-05-16T13:40:46;8.65;;;1.65;;
27402;SDS011;14862;49.494;8.530;2023-05-16T13:43:11;5.60;;;1.80;;
27402;SDS011;14862;49.494;8.530;2023-05-16T13:45:38;8.20;;;1.55;;
27402;SDS011;14862;49.494;8.530;2023-05-16T13:48:04;5.97;;;1.90;;
27402;SDS011;14862;49.494;8.530;2023-05-16T13:50:30;5.78;;;1.67;;
27402;SDS011;14862;49.494;8.530;2023-05-16T13:52:55;6.13;;;2.38;;
27402;SDS011;14862;49.494;8.530;2023-05-16T13:55:20;5.63;;;1.48;;
27402;SDS011;14862;49.494;8.530;2023-05-16T13:57:45;5.35;;;1.90;;
27402;SDS011;14862;49.494;8.530;2023-05-16T14:00:11;5.37;;;1.50;;
27402;SDS011;14862;49.494;8.530;2023-05-16T14:02:40;5.97;;;1.30;;
27402;SDS011;14862;49.494;8.530;2023-05-16T14:05:06;7.78;;;1.70;;
27402;SDS011;14862;49.494;8.530;2023-05-16T14:07:32;8.82;;;1.70;;
27402;SDS011;14862;49.494;8.530;2023-05-16T14:09:57;6.60;;;1.58;;
27402;SDS011;14862;49.494;8.530;2023-05-16T14:12:22;4.80;;;1.98;;
27402;SDS011;14862;49.494;8.530;2023-05-16T14:14:47;4.43;;;2.23;;
27402;SDS011;14862;49.494;8.530;2023-05-16T14:17:12;5.00;;;1.50;;
27402;SDS011;14862;49.494;8.530;2023-05-16T14:19:38;5.03;;;1.60;;
27402;SDS011;14862;49.494;8.530;2023-05-16T14:22:03;8.50;;;1.88;;
27402;SDS011;14862;49.494;8.530;2023-05-16T14:24:28;4.25;;;1.55;;
27402;SDS011;14862;49.494;8.530;2023-05-16T14:26:53;2.58;;;1.30;;
27402;SDS011;14862;49.494;8.530;2023-05-16T14:29:19;8.00;;;2.20;;
27402;SDS011;14862;49.494;8.530;2023-05-16T14:31:44;7.50;;;1.75;;
27402;SDS011;14862;49.494;8.530;2023-05-16T14:34:11;4.70;;;1.70;;
27402;SDS011;14862;49.494;8.530;2023-05-16T14:36:36;8.80;;;1.77;;
27402;SDS011;14862;49.494;8.530;2023-05-16T14:39:01;7.90;;;1.77;;
27402;SDS011;14862;49.494;8.530;2023-05-16T14:41:27;8.27;;;1.60;;
27402;SDS011;14862;49.494;8.530;2023-05-16T14:43:52;8.13;;;1.67;;
27402;SDS011;14862;49.494;8.530;2023-05-16T14:46:17;7.23;;;1.60;;
27402;SDS011;14862;49.494;8.530;2023-05-16T14:48:42;4.07;;;1.63;;
27402;SDS011;14862;49.494;8.530;2023-05-16T14:51:07;9.82;;;1.65;;
27402;SDS011;14862;49.494;8.530;2023-05-16T14:53:33;6.22;;;1.60;;
27402;SDS011;14862;49.494;8.530;2023-05-16T14:55:58;5.78;;;1.75;;
27402;SDS011;14862;49.494;8.530;2023-05-16T14:58:23;5.80;;;1.50;;